Harriman, New York
Current Conditions -  °F | °C
As of 2:45 PM on Sunday 23 Nov 2014 (Local Time) from KSWF Reporting Station
Broken Clouds Broken Clouds  
Wind Chill: 57°   Ceiling: 10000
Heat Index: 57°   Visibility: 20mi
Dew Point: 30°   Wind: 5mph
Humidity: 36%   Direction: 250°WSW
Pressure: 30.11"   Gusts: NA
Location:  41.31°N, 74.14°W
Report Text: KSWF 231945Z 25004KT 20SM BKN100 14/M01 A3011
Loading
Personal Weather Stations






























Interactive Weather Map New forecast layout! Learn more

10-Day Weather Forecast

Advertisements
Track Severe Weather on mobile